Time;durP1;ratioP1;P1;durP2;ratioP2;P2;SDS_P1;SDS_P2;PMS_P1;PMS_P2;Temp;Humidity;BMP_temperature;BMP_pressure;BME280_temperature;BME280_humidity;BME280_pressure;Samples;Min_cycle;Max_cycle;Signal;HPM_P1;HPM_P2
2022/04/17 00:00:17;;;;;;;73.93;48.33;;;9.50;99.90;;;;;;4916278;29;20143;-72
2022/04/17 00:02:44;;;;;;;71.47;45.28;;;9.40;99.90;;;;;;4916312;29;20511;-72
2022/04/17 00:05:11;;;;;;;68.95;47.20;;;9.40;99.90;;;;;;4917597;29;20110;-72
2022/04/17 00:07:38;;;;;;;67.57;47.45;;;9.40;99.90;;;;;;4916087;29;20136;-71
2022/04/17 00:10:06;;;;;;;71.95;46.50;;;9.40;99.90;;;;;;4917242;29;20157;-72
2022/04/17 00:12:33;;;;;;;66.47;45.50;;;9.40;99.90;;;;;;4900459;29;20048;-72
2022/04/17 00:15:00;;;;;;;68.05;45.25;;;9.40;99.90;;;;;;4915756;29;20055;-72
2022/04/17 00:17:27;;;;;;;66.25;45.42;;;9.40;99.90;;;;;;4900492;29;20099;-72
2022/04/17 00:19:54;;;;;;;70.43;47.47;;;9.30;99.90;;;;;;4917292;29;20048;-72
2022/04/17 00:22:23;;;;;;;64.55;43.88;;;9.30;99.90;;;;;;4916578;29;20052;-72
2022/04/17 00:24:50;;;;;;;68.20;46.03;;;9.30;99.90;;;;;;4916945;29;20062;-72
2022/04/17 00:27:17;;;;;;;68.72;45.00;;;9.30;99.90;;;;;;4917131;29;20063;-72
2022/04/17 00:29:44;;;;;;;64.13;44.42;;;9.20;99.90;;;;;;4915419;29;20064;-71
2022/04/17 00:32:11;;;;;;;64.38;43.13;;;9.20;99.90;;;;;;4916787;29;20063;-72
2022/04/17 00:34:38;;;;;;;69.53;45.90;;;9.10;99.90;;;;;;4931257;29;20056;-72
2022/04/17 00:37:05;;;;;;;68.57;45.78;;;9.20;99.90;;;;;;4916934;29;20044;-72
2022/04/17 00:39:32;;;;;;;69.53;45.45;;;9.20;99.90;;;;;;4916725;29;20055;-72
2022/04/17 00:42:02;;;;;;;69.38;46.70;;;9.10;99.90;;;;;;4916414;29;20079;-72
2022/04/17 00:44:29;;;;;;;68.53;45.72;;;9.10;99.90;;;;;;4915546;29;20093;-72
2022/04/17 00:46:56;;;;;;;70.28;46.20;;;9.10;99.90;;;;;;4915869;29;20059;-72
2022/04/17 00:49:26;;;;;;;66.85;45.30;;;9.00;99.90;;;;;;4916678;29;20085;-72
2022/04/17 00:51:54;;;;;;;;;;;8.90;99.90;;;;;;4915411;29;20492;-72
2022/04/17 00:54:21;;;;;;;73.50;44.92;;;8.90;99.90;;;;;;4916385;29;19927;-72
2022/04/17 00:56:51;;;;;;;71.05;44.90;;;8.90;99.90;;;;;;4899420;29;20405;-72
2022/04/17 00:59:19;;;;;;;71.47;47.42;;;8.90;99.90;;;;;;4900225;29;20048;-71
2022/04/17 01:01:46;;;;;;;76.82;49.85;;;8.90;99.90;;;;;;4915314;29;20060;-72
2022/04/17 01:04:14;;;;;;;71.82;47.80;;;8.90;99.90;;;;;;4916489;29;20048;-72
2022/04/17 01:06:41;;;;;;;74.25;50.13;;;8.90;99.90;;;;;;4915319;29;20416;-72
2022/04/17 01:09:08;;;;;;;71.30;47.55;;;8.90;99.90;;;;;;4916272;29;20059;-72
2022/04/17 01:11:38;;;;;;;77.47;49.33;;;8.90;99.90;;;;;;4915032;29;20052;-72
2022/04/17 01:14:06;;;;;;;71.57;47.97;;;8.90;99.90;;;;;;4898818;29;20068;-72
2022/04/17 01:16:33;;;;;;;71.53;47.58;;;8.80;99.90;;;;;;4899526;29;20052;-72
2022/04/17 01:19:03;;;;;;;69.80;45.67;;;8.80;99.90;;;;;;4915240;29;20135;-72
2022/04/17 01:21:31;;;;;;;71.30;48.35;;;8.80;99.90;;;;;;4915460;29;20437;-72
2022/04/17 01:26:57;;;;;;;71.10;45.58;;;8.80;99.90;;;;;;4915196;29;20126;-72
2022/04/17 01:29:31;;;;;;;70.70;46.25;;;8.80;99.90;;;;;;4895647;29;20044;-72
2022/04/17 01:31:59;;;;;;;73.57;48.38;;;8.80;99.90;;;;;;4911433;29;20048;-71
2022/04/17 01:34:26;;;;;;;68.70;47.53;;;8.80;99.90;;;;;;4917685;29;20052;-72
2022/04/17 01:36:53;;;;;;;74.00;47.05;;;8.80;99.90;;;;;;4899141;29;20048;-72
2022/04/17 01:39:20;;;;;;;72.82;47.53;;;8.80;99.90;;;;;;4914625;29;20437;-71
2022/04/17 01:41:47;;;;;;;69.32;47.88;;;8.80;99.90;;;;;;4916260;29;20480;-72
2022/04/17 01:44:16;;;;;;;71.38;46.80;;;8.80;99.90;;;;;;4915029;29;20084;-71
2022/04/17 01:46:44;;;;;;;67.15;46.78;;;8.70;99.90;;;;;;4914899;29;20051;-71
2022/04/17 01:49:11;;;;;;;72.30;46.20;;;8.70;99.90;;;;;;4916122;29;20056;-71
2022/04/17 01:51:39;;;;;;;75.40;47.67;;;8.70;99.90;;;;;;4914504;29;20075;-71
2022/04/17 01:54:07;;;;;;;71.93;48.35;;;8.70;99.90;;;;;;4898780;29;20445;-71
2022/04/17 01:56:34;;;;;;;77.20;48.10;;;8.70;99.90;;;;;;4916147;29;20056;-72
2022/04/17 01:59:01;;;;;;;76.18;47.33;;;8.70;99.90;;;;;;4917109;29;20059;-71
2022/04/17 02:01:28;;;;;;;79.70;51.00;;;8.70;99.90;;;;;;4916227;29;20060;-72
2022/04/17 02:03:55;;;;;;;76.22;49.33;;;8.60;99.90;;;;;;4918470;29;20532;-71
2022/04/17 02:06:22;;;;;;;73.85;47.88;;;8.60;99.90;;;;;;4920959;29;20481;-71
2022/04/17 02:08:51;;;;;;;76.18;50.28;;;8.60;99.90;;;;;;4919728;29;20060;-71
2022/04/17 02:11:19;;;;;;;79.68;48.13;;;8.60;99.90;;;;;;4920682;29;20052;-71
2022/04/17 02:13:46;;;;;;;75.65;49.08;;;8.60;99.90;;;;;;4917328;29;20056;-72
2022/04/17 02:16:13;;;;;;;81.25;50.42;;;8.50;99.90;;;;;;4914597;29;20044;-72
2022/04/17 02:18:42;;;;;;;77.05;48.22;;;8.50;99.90;;;;;;4915432;29;20258;-72
2022/04/17 02:21:09;;;;;;;82.40;51.38;;;8.50;99.90;;;;;;4915300;29;20051;-71
2022/04/17 02:23:36;;;;;;;78.07;48.53;;;8.50;99.90;;;;;;4915208;29;20048;-72
2022/04/17 02:26:03;;;;;;;88.47;53.33;;;8.50;99.90;;;;;;4915375;29;20515;-72
2022/04/17 02:28:34;;;;;;;78.25;50.78;;;8.40;99.90;;;;;;4915074;29;20390;-71
2022/04/17 02:31:03;;;;;;;86.07;50.15;;;8.40;99.90;;;;;;4915226;29;20063;-71
2022/04/17 02:33:30;;;;;;;87.20;52.03;;;8.40;99.90;;;;;;4915753;29;20476;-71
2022/04/17 02:35:57;;;;;;;81.57;50.78;;;8.40;99.90;;;;;;4930020;29;20048;-72
2022/04/17 02:38:24;;;;;;;82.85;53.33;;;8.40;99.90;;;;;;4914792;29;20059;-72
2022/04/17 02:40:51;;;;;;;79.75;47.90;;;8.30;99.90;;;;;;4899677;29;20067;-71
2022/04/17 02:43:18;;;;;;;78.35;49.00;;;8.30;99.90;;;;;;4919189;29;20389;-71
2022/04/17 02:45:45;;;;;;;86.30;54.00;;;8.30;99.90;;;;;;4917895;29;20048;-71
2022/04/17 02:48:12;;;;;;;81.10;50.78;;;8.20;99.90;;;;;;4918073;29;20052;-72
2022/04/17 02:50:39;;;;;;;87.88;51.33;;;8.20;99.90;;;;;;4919019;29;20063;-72
2022/04/17 02:53:06;;;;;;;89.55;54.70;;;8.20;99.90;;;;;;4918347;29;20543;-71
2022/04/17 02:55:33;;;;;;;88.18;54.05;;;8.10;99.90;;;;;;4917507;29;20060;-72
2022/04/17 02:58:00;;;;;;;83.40;51.13;;;8.10;99.90;;;;;;4902061;29;20049;-72
2022/04/17 03:00:27;;;;;;;83.53;51.78;;;8.10;99.90;;;;;;4886339;29;20051;-71
2022/04/17 03:05:40;;;;;;;77.07;49.85;;;8.10;99.90;;;;;;4918442;29;20059;-72
2022/04/17 03:08:07;;;;;;;75.38;46.42;;;8.00;99.90;;;;;;4918456;29;20052;-72
2022/04/17 03:10:38;;;;;;;75.18;46.90;;;8.00;99.90;;;;;;4918392;29;20515;-72
2022/04/17 03:13:06;;;;;;;75.22;45.40;;;7.90;99.90;;;;;;4918302;29;20492;-72
2022/04/17 03:15:33;;;;;;;77.55;47.83;;;7.90;99.90;;;;;;4917376;29;20103;-72
2022/04/17 03:18:00;;;;;;;73.88;48.85;;;7.90;99.90;;;;;;4917312;29;20401;-72
2022/04/17 03:20:27;;;;;;;80.68;48.63;;;7.80;99.90;;;;;;4917440;29;20103;-71
2022/04/17 03:22:54;;;;;;;79.22;49.38;;;7.80;99.90;;;;;;4911505;29;20049;-72
2022/04/17 03:25:21;;;;;;;78.45;49.17;;;7.80;99.90;;;;;;4915570;29;20064;-73
2022/04/17 03:27:49;;;;;;;72.95;45.63;;;7.80;99.90;;;;;;4916979;29;20052;-72
2022/04/17 03:30:16;;;;;;;77.63;46.17;;;7.70;99.90;;;;;;4916844;29;20048;-71
2022/04/17 03:32:47;;;;;;;76.95;48.25;;;7.70;99.90;;;;;;4917371;29;20047;-72
2022/04/17 03:35:15;;;;;;;80.03;49.45;;;7.70;99.90;;;;;;4916066;29;20063;-73
2022/04/17 03:37:42;;;;;;;76.65;47.83;;;7.70;99.90;;;;;;4901290;29;20056;-67
2022/04/17 03:40:13;;;;;;;85.18;52.75;;;7.70;99.90;;;;;;4918414;29;20082;-63
2022/04/17 03:42:40;;;;;;;74.28;46.90;;;7.70;99.90;;;;;;4917497;29;20052;-68
2022/04/17 03:45:11;;;;;;;74.07;45.97;;;7.70;99.90;;;;;;4916066;29;20048;-68
2022/04/17 03:47:38;;;;;;;70.88;44.90;;;7.60;99.90;;;;;;4916056;29;20059;-65
2022/04/17 03:50:06;;;;;;;72.60;44.67;;;7.60;99.90;;;;;;4931894;29;20074;-74
2022/04/17 03:52:46;;;;;;;72.78;47.25;;;7.50;99.90;;;;;;4915822;29;20059;-64
2022/04/17 03:55:13;;;;;;;419.20;317.40;;;7.50;99.90;;;;;;4923195;29;20055;-69
2022/04/17 03:57:40;;;;;;;675.28;504.02;;;7.40;99.90;;;;;;4932156;29;20052;-66
2022/04/17 04:00:10;;;;;;;105.43;73.13;;;7.40;99.90;;;;;;4917095;29;20050;-68
2022/04/17 04:02:37;;;;;;;83.53;52.55;;;7.40;99.90;;;;;;4910181;29;20481;-65
2022/04/17 04:05:05;;;;;;;78.78;47.83;;;7.30;99.90;;;;;;4916077;29;20107;-66
2022/04/17 04:07:31;;;;;;;78.03;47.42;;;7.30;99.90;;;;;;4916755;29;20056;-66
2022/04/17 04:09:58;;;;;;;75.72;45.88;;;7.30;99.90;;;;;;4915661;29;20052;-68
2022/04/17 04:12:26;;;;;;;77.68;44.10;;;7.30;99.90;;;;;;4917228;29;20056;-66
2022/04/17 04:14:54;;;;;;;71.97;45.13;;;7.40;99.90;;;;;;4917602;29;20052;-66
2022/04/17 04:17:21;;;;;;;67.55;40.45;;;7.30;99.90;;;;;;4917297;29;20059;-66
2022/04/17 04:19:48;;;;;;;71.80;43.38;;;7.20;99.90;;;;;;4917290;29;20461;-67
2022/04/17 04:22:15;;;;;;;74.72;43.83;;;7.30;99.90;;;;;;4917280;29;20056;-66
2022/04/17 04:24:42;;;;;;;73.07;42.95;;;7.20;99.90;;;;;;4916828;29;20051;-66
2022/04/17 04:29:54;;;;;;;68.30;40.97;;;7.30;99.90;;;;;;4916295;29;20052;-66
2022/04/17 04:32:21;;;;;;;72.43;41.97;;;7.30;99.90;;;;;;4914833;29;20044;-66
2022/04/17 04:34:48;;;;;;;63.70;42.00;;;7.30;99.90;;;;;;4916864;29;20064;-66
2022/04/17 04:37:15;;;;;;;67.18;43.40;;;7.30;99.90;;;;;;4915250;29;20044;-65
2022/04/17 04:39:41;;;;;;;66.05;41.65;;;7.30;99.90;;;;;;4916184;29;20128;-66
2022/04/17 04:42:08;;;;;;;66.95;42.50;;;7.30;99.90;;;;;;4916771;29;20058;-66
2022/04/17 04:44:35;;;;;;;69.25;42.17;;;7.30;99.90;;;;;;4916856;29;20052;-66
2022/04/17 04:47:02;;;;;;;65.82;42.60;;;7.30;99.90;;;;;;4915316;29;20048;-65
2022/04/17 04:49:29;;;;;;;65.80;43.55;;;7.30;99.90;;;;;;4915989;29;20523;-65
2022/04/17 04:52:00;;;;;;;61.15;38.35;;;7.30;99.90;;;;;;4915622;29;20082;-67
2022/04/17 04:54:31;;;;;;;58.85;38.72;;;7.30;99.90;;;;;;4914806;29;20104;-66
2022/04/17 04:56:58;;;;;;;62.85;39.55;;;7.30;99.90;;;;;;4916034;29;20068;-66
2022/04/17 04:59:25;;;;;;;63.33;40.40;;;7.30;99.90;;;;;;4915499;29;20048;-67
2022/04/17 05:01:52;;;;;;;59.50;38.35;;;7.30;99.90;;;;;;4915375;29;20063;-66
2022/04/17 05:04:22;;;;;;;62.88;39.30;;;7.30;99.90;;;;;;4915471;29;20048;-67
2022/04/17 05:06:49;;;;;;;62.30;38.72;;;7.30;99.90;;;;;;4915854;29;20056;-66
2022/04/17 05:09:16;;;;;;;62.70;42.05;;;7.30;99.90;;;;;;4915956;29;20062;-66
2022/04/17 05:11:44;;;;;;;56.92;37.50;;;7.30;99.90;;;;;;4915841;29;20055;-67
2022/04/17 05:14:10;;;;;;;64.22;41.38;;;7.30;99.90;;;;;;4916108;29;20378;-67
2022/04/17 05:16:37;;;;;;;66.35;39.63;;;7.30;99.90;;;;;;4915521;29;20500;-66
2022/04/17 05:22:10;;;;;;;62.22;37.50;;;7.40;99.90;;;;;;4893809;29;20044;-67
2022/04/17 05:24:38;;;;;;;54.83;36.17;;;7.40;99.90;;;;;;4907713;29;20062;-66
2022/04/17 05:27:05;;;;;;;64.05;41.22;;;7.40;99.90;;;;;;4914810;29;20062;-66
2022/04/17 05:29:32;;;;;;;58.90;39.97;;;7.50;99.90;;;;;;4914464;29;20425;-66
2022/04/17 05:32:00;;;;;;;56.17;36.88;;;7.50;99.90;;;;;;4914031;29;20047;-66
2022/04/17 05:34:27;;;;;;;65.13;41.33;;;7.50;99.90;;;;;;4913945;29;20063;-66
2022/04/17 05:36:54;;;;;;;58.38;37.40;;;7.60;99.90;;;;;;4914203;29;20052;-67
2022/04/17 05:39:21;;;;;;;56.58;37.22;;;7.60;99.90;;;;;;4914888;29;20055;-66
2022/04/17 05:41:48;;;;;;;63.42;40.35;;;7.70;99.90;;;;;;4913702;29;20502;-66
2022/04/17 05:44:14;;;;;;;59.90;40.42;;;7.70;99.90;;;;;;4914407;29;20477;-66
2022/04/17 05:46:42;;;;;;;58.20;40.00;;;7.70;99.90;;;;;;4914141;29;20052;-66
2022/04/17 05:49:09;;;;;;;57.60;39.45;;;7.80;99.90;;;;;;4915047;29;20048;-66
2022/04/17 05:51:37;;;;;;;59.28;39.83;;;7.90;99.90;;;;;;4915283;29;20082;-66
2022/04/17 05:54:07;;;;;;;58.72;37.53;;;7.90;99.90;;;;;;4914929;29;20052;-67
2022/04/17 05:56:37;;;;;;;56.85;37.45;;;8.00;99.90;;;;;;4914083;29;20063;-66
2022/04/17 05:59:07;;;;;;;52.90;35.00;;;8.00;99.90;;;;;;4912593;29;20048;-67
2022/04/17 06:01:34;;;;;;;50.90;34.80;;;8.10;99.90;;;;;;4915536;29;20086;-67
2022/04/17 06:04:02;;;;;;;62.60;36.08;;;8.20;99.90;;;;;;4914989;29;20048;-67
2022/04/17 06:06:29;;;;;;;57.75;38.60;;;8.20;99.90;;;;;;4915103;29;20058;-66
2022/04/17 06:08:55;;;;;;;53.28;37.05;;;8.30;99.90;;;;;;4914077;29;20059;-68
2022/04/17 06:11:22;;;;;;;55.95;37.95;;;8.40;99.90;;;;;;4913588;29;20044;-68
2022/04/17 06:13:49;;;;;;;55.42;37.80;;;8.50;99.90;;;;;;4914706;29;20046;-66
2022/04/17 06:16:16;;;;;;;57.03;38.15;;;8.50;99.90;;;;;;4917306;29;20070;-67
2022/04/17 06:18:43;;;;;;;50.10;37.05;;;8.60;99.90;;;;;;4918726;29;20044;-69
2022/04/17 06:21:11;;;;;;;54.08;36.78;;;8.60;99.90;;;;;;4918608;29;20044;-70
2022/04/17 06:23:39;;;;;;;49.05;35.70;;;8.60;99.90;;;;;;4918054;29;20048;-67
2022/04/17 06:26:09;;;;;;;53.97;35.70;;;8.70;99.90;;;;;;4919030;29;20052;-67
2022/04/17 06:28:37;;;;;;;54.45;36.75;;;8.80;99.90;;;;;;4917844;29;20040;-67
2022/04/17 06:31:07;;;;;;;48.15;34.05;;;8.90;99.90;;;;;;4916455;29;20404;-67
2022/04/17 06:33:34;;;;;;;52.90;36.97;;;9.00;99.90;;;;;;4918712;29;20055;-67
2022/04/17 06:36:01;;;;;;;49.13;32.00;;;9.00;99.90;;;;;;4918436;29;20444;-67
2022/04/17 06:38:28;;;;;;;46.22;32.63;;;9.10;99.90;;;;;;4917634;29;20052;-67
2022/04/17 06:40:55;;;;;;;56.40;36.35;;;9.20;99.90;;;;;;4901540;29;20040;-66
2022/04/17 06:43:22;;;;;;;47.78;34.58;;;9.30;99.90;;;;;;4918421;29;20061;-67
2022/04/17 06:45:49;;;;;;;46.55;33.75;;;9.40;99.90;;;;;;4917215;29;20052;-67
2022/04/17 06:48:21;;;;;;;45.85;32.85;;;9.60;99.90;;;;;;4917307;29;20511;-68
2022/04/17 06:50:49;;;;;;;43.08;30.67;;;9.70;99.90;;;;;;4917125;29;20044;-67
2022/04/17 06:53:16;;;;;;;44.47;31.88;;;9.80;99.90;;;;;;4918079;29;20131;-67
2022/04/17 06:55:43;;;;;;;46.05;33.28;;;9.90;99.90;;;;;;4916775;29;20063;-67
2022/04/17 06:58:10;;;;;;;45.65;33.03;;;10.10;99.90;;;;;;4918534;29;20055;-67
2022/04/17 07:00:38;;;;;;;44.65;31.33;;;10.20;99.90;;;;;;4915621;29;20103;-66
2022/04/17 07:03:05;;;;;;;40.47;29.73;;;10.30;99.90;;;;;;4917800;29;20067;-69
2022/04/17 07:05:32;;;;;;;41.25;31.80;;;10.40;99.90;;;;;;4918241;29;20126;-67
2022/04/17 07:08:01;;;;;;;35.70;28.73;;;10.60;99.90;;;;;;4917285;29;20104;-67
2022/04/17 07:10:28;;;;;;;37.88;28.70;;;10.70;99.90;;;;;;4917673;29;20062;-67
2022/04/17 07:12:55;;;;;;;35.40;24.83;;;10.90;99.90;;;;;;4916070;29;20488;-67
2022/04/17 07:15:25;;;;;;;33.10;24.27;;;11.10;99.90;;;;;;4916367;29;20079;-67
2022/04/17 07:17:53;;;;;;;27.83;22.42;;;11.20;99.90;;;;;;4916564;29;20107;-67
2022/04/17 07:20:20;;;;;;;29.02;21.60;;;11.40;99.90;;;;;;4917397;29;20141;-67
2022/04/17 07:22:48;;;;;;;24.30;19.20;;;11.60;99.90;;;;;;4916707;29;20060;-68
2022/04/17 07:25:19;;;;;;;24.00;19.02;;;11.80;99.90;;;;;;4916795;29;20052;-67
2022/04/17 07:27:47;;;;;;;23.70;18.80;;;12.00;99.90;;;;;;4916645;29;20413;-67
2022/04/17 07:30:20;;;;;;;25.42;19.52;;;12.10;99.90;;;;;;4916233;29;20048;-68
2022/04/17 07:32:49;;;;;;;23.08;16.83;;;12.20;99.90;;;;;;4915479;29;20044;-67
2022/04/17 07:35:17;;;;;;;24.95;17.60;;;12.30;99.90;;;;;;4916206;29;20051;-67
2022/04/17 07:38:03;;;;;;;21.20;16.42;;;12.40;99.90;;;;;;4917509;29;20055;-67
2022/04/17 07:40:34;;;;;;;20.10;15.23;;;12.60;99.90;;;;;;4916633;29;20067;-67
2022/04/17 07:43:02;;;;;;;20.88;15.25;;;12.60;99.90;;;;;;4915888;29;20044;-67
2022/04/17 07:45:30;;;;;;;20.80;16.10;;;12.70;99.90;;;;;;4915913;29;20059;-67
2022/04/17 07:47:57;;;;;;;19.00;15.27;;;12.70;99.90;;;;;;4915313;29;20056;-67
2022/04/17 07:50:27;;;;;;;19.38;15.10;;;12.80;99.90;;;;;;4915992;29;20060;-67
2022/04/17 07:52:54;;;;;;;21.10;16.13;;;12.90;99.90;;;;;;4915561;29;20051;-67
2022/04/17 07:55:21;;;;;;;18.73;14.38;;;13.00;99.90;;;;;;4914958;29;20512;-67
2022/04/17 08:00:35;;;;;;;18.73;13.73;;;13.20;99.90;;;;;;4929281;29;20560;-67
2022/04/17 08:03:20;;;;;;;;;;;13.40;99.90;;;;;;4916022;29;20040;-67
2022/04/17 08:05:48;;;;;;;16.67;11.90;;;13.50;99.90;;;;;;4916487;29;19923;-66
2022/04/17 08:08:15;;;;;;;14.30;11.23;;;13.60;99.90;;;;;;4914630;29;20059;-67
2022/04/17 08:10:42;;;;;;;15.30;11.75;;;13.60;99.90;;;;;;4916886;29;20060;-67
2022/04/17 08:13:09;;;;;;;12.55;10.25;;;13.80;99.90;;;;;;4916291;29;20132;-67
2022/04/17 08:15:36;;;;;;;17.42;11.27;;;13.90;99.50;;;;;;4915551;29;20119;-67
2022/04/17 08:18:03;;;;;;;12.68;9.85;;;14.00;99.30;;;;;;4915210;29;20055;-67
2022/04/17 08:20:30;;;;;;;10.93;8.98;;;14.10;97.60;;;;;;4913035;29;20063;-67
2022/04/17 08:22:57;;;;;;;12.50;9.18;;;14.10;93.80;;;;;;4913571;29;20059;-67
2022/04/17 08:25:24;;;;;;;9.18;8.05;;;14.30;95.30;;;;;;4916206;29;20062;-67
2022/04/17 08:27:52;;;;;;;9.45;7.30;;;14.40;94.30;;;;;;4915844;29;20051;-67
2022/04/17 08:30:24;;;;;;;9.35;7.10;;;14.40;91.50;;;;;;4915546;29;20051;-67
2022/04/17 08:32:51;;;;;;;7.68;6.60;;;14.50;90.40;;;;;;4882494;29;20048;-67
2022/04/17 08:35:18;;;;;;;8.50;6.38;;;14.70;87.40;;;;;;4915720;29;20052;-66
2022/04/17 08:37:46;;;;;;;7.82;6.32;;;14.80;89.20;;;;;;4915921;29;20047;-67
2022/04/17 08:40:14;;;;;;;7.70;6.40;;;14.90;88.70;;;;;;4898857;29;20086;-67
2022/04/17 08:42:40;;;;;;;8.93;5.95;;;15.10;86.80;;;;;;4930643;29;20522;-67
2022/04/17 08:45:09;;;;;;;7.32;5.70;;;15.20;87.00;;;;;;4914531;29;20060;-67
2022/04/17 08:47:40;;;;;;;8.50;6.00;;;15.30;84.50;;;;;;4916305;29;20448;-66
2022/04/17 08:50:11;;;;;;;7.20;5.72;;;15.40;82.00;;;;;;4911876;29;20051;-67
2022/04/17 08:52:38;;;;;;;8.68;5.70;;;15.40;81.00;;;;;;4913103;29;20055;-66
2022/04/17 08:55:06;;;;;;;7.45;5.43;;;15.40;81.40;;;;;;4930135;29;20068;-67
2022/04/17 08:57:33;;;;;;;8.30;6.07;;;15.50;80.70;;;;;;4896001;29;20088;-67
2022/04/17 09:00:00;;;;;;;6.55;5.38;;;15.50;80.00;;;;;;4913574;29;20059;-67
2022/04/17 09:02:26;;;;;;;7.00;5.70;;;15.60;80.40;;;;;;4904209;29;20059;-67
2022/04/17 09:04:53;;;;;;;6.68;5.07;;;15.70;77.70;;;;;;4915543;29;20147;-67
2022/04/17 09:07:20;;;;;;;9.15;5.72;;;15.70;77.30;;;;;;4916172;29;20055;-66
2022/04/17 09:09:49;;;;;;;6.57;5.22;;;15.70;77.80;;;;;;4915297;29;20079;-66
2022/04/17 09:12:23;;;;;;;7.47;5.60;;;15.80;77.50;;;;;;4915155;29;20055;-66
2022/04/17 09:14:50;;;;;;;6.22;4.85;;;15.80;77.80;;;;;;4911951;29;20052;-67
2022/04/17 09:17:16;;;;;;;6.57;4.80;;;15.90;74.90;;;;;;4899394;29;20056;-66
2022/04/17 09:19:43;;;;;;;6.43;5.13;;;16.00;76.20;;;;;;4915163;29;20117;-69
2022/04/17 09:22:10;;;;;;;7.30;5.00;;;16.10;74.50;;;;;;4914103;29;20056;-67
2022/04/17 09:24:38;;;;;;;7.55;5.50;;;16.20;76.50;;;;;;4913931;29;20067;-67
2022/04/17 09:27:06;;;;;;;7.22;5.55;;;16.20;75.40;;;;;;4898220;29;20044;-68
2022/04/17 09:29:37;;;;;;;8.65;5.75;;;16.20;75.70;;;;;;4915844;29;20056;-67
2022/04/17 09:32:10;;;;;;;7.50;5.53;;;16.20;74.90;;;;;;4914163;29;20059;-73
2022/04/17 09:34:49;;;;;;;7.20;5.15;;;16.20;72.50;;;;;;4915454;29;20048;-68
2022/04/17 09:37:20;;;;;;;6.32;5.68;;;16.20;74.30;;;;;;4912266;29;20048;-66
2022/04/17 09:39:47;;;;;;;6.90;4.80;;;16.30;73.80;;;;;;4897963;29;20441;-67
2022/04/17 09:42:21;;;;;;;6.47;5.43;;;16.40;74.80;;;;;;4913987;29;20052;-67
2022/04/17 09:44:49;;;;;;;7.88;6.13;;;16.40;75.20;;;;;;4914020;29;20055;-67
2022/04/17 09:47:22;;;;;;;7.22;6.10;;;16.50;74.50;;;;;;4915222;29;20498;-66
2022/04/17 09:50:00;;;;;;;7.00;5.80;;;16.60;71.40;;;;;;4913647;29;20052;-66
2022/04/17 09:52:31;;;;;;;8.32;5.30;;;16.60;71.50;;;;;;4914274;29;20497;-66
2022/04/17 09:54:59;;;;;;;7.63;5.85;;;16.60;73.40;;;;;;4912944;29;20052;-66
2022/04/17 09:57:33;;;;;;;6.72;4.78;;;16.60;73.00;;;;;;4916095;29;20066;-66
2022/04/17 10:00:06;;;;;;;6.60;4.90;;;16.70;71.30;;;;;;4913444;29;20051;-66
2022/04/17 10:02:33;;;;;;;7.07;5.20;;;16.80;73.40;;;;;;4916648;29;20488;-66
2022/04/17 10:05:00;;;;;;;5.45;4.65;;;16.80;72.50;;;;;;4913022;29;20048;-66
2022/04/17 10:07:27;;;;;;;6.50;4.88;;;16.90;73.70;;;;;;4913396;29;20056;-66
2022/04/17 10:09:54;;;;;;;7.03;4.57;;;17.00;71.40;;;;;;4912914;29;20059;-66
2022/04/17 10:12:21;;;;;;;6.78;4.78;;;17.10;72.80;;;;;;4919959;29;20055;-66
2022/04/17 10:14:52;;;;;;;5.65;4.32;;;17.10;70.80;;;;;;4920302;29;20041;-69
2022/04/17 10:17:20;;;;;;;7.82;5.30;;;17.20;70.40;;;;;;4913381;29;20098;-67
2022/04/17 10:19:48;;;;;;;5.23;4.27;;;17.20;71.00;;;;;;4924450;29;20063;-66
2022/04/17 10:22:18;;;;;;;6.57;4.40;;;17.20;72.90;;;;;;4917538;29;20408;-66
2022/04/17 10:24:51;;;;;;;7.78;4.25;;;17.30;70.60;;;;;;4914746;29;20052;-66
2022/04/17 10:27:22;;;;;;;5.07;4.28;;;17.40;70.30;;;;;;4903979;29;20484;-66
2022/04/17 10:29:58;;;;;;;5.90;4.40;;;17.50;69.20;;;;;;4922703;29;20202;-67
2022/04/17 10:32:38;;;;;;;4.95;3.97;;;17.60;68.30;;;;;;4925756;29;20056;-66
2022/04/17 10:35:30;;;;;;;6.47;4.85;;;17.70;69.70;;;;;;4921559;29;20056;-67
2022/04/17 10:38:16;;;;;;;5.32;3.33;;;17.80;67.30;;;;;;4914925;29;20052;-66
2022/04/17 10:40:59;;;;;;;4.53;3.75;;;17.80;67.50;;;;;;4915270;29;20044;-66
2022/04/17 10:43:34;;;;;;;4.88;3.50;;;17.90;63.10;;;;;;4898485;29;20048;-68
2022/04/17 10:46:08;;;;;;;4.53;3.60;;;17.80;60.00;;;;;;4912137;29;20063;-67
2022/04/17 10:48:42;;;;;;;4.80;4.00;;;17.80;63.40;;;;;;4921314;29;20054;-66
2022/04/17 10:51:17;;;;;;;9.75;4.03;;;18.00;63.10;;;;;;4914767;29;20052;-67
2022/04/17 10:54:11;;;;;;;6.55;4.03;;;18.10;63.10;;;;;;4921370;29;20056;-68
2022/04/17 10:56:39;;;;;;;10.65;8.85;;;18.00;63.20;;;;;;4914518;29;20078;-71
2022/04/17 10:59:19;;;;;;;7.82;5.30;;;18.10;64.10;;;;;;4914933;29;20048;-74
2022/04/17 11:01:53;;;;;;;4.97;4.43;;;18.20;63.50;;;;;;4915284;29;20059;-74
2022/04/17 11:04:27;;;;;;;4.53;3.90;;;18.30;65.60;;;;;;4920577;29;20492;-74
2022/04/17 11:07:18;;;;;;;6.25;4.80;;;18.20;61.60;;;;;;4918442;29;20235;-74
2022/04/17 11:09:46;;;;;;;7.85;5.95;;;18.20;60.60;;;;;;4917592;29;20064;-73
2022/04/17 11:12:20;;;;;;;7.03;5.22;;;18.20;63.30;;;;;;4916200;29;20055;-72
2022/04/17 11:15:01;;;;;;;6.63;4.75;;;18.20;62.00;;;;;;4919256;29;20040;-68
2022/04/17 11:17:29;;;;;;;6.15;4.35;;;18.10;60.80;;;;;;4926040;29;20048;-64
2022/04/17 11:19:57;;;;;;;6.53;4.50;;;18.10;61.70;;;;;;4883367;29;20048;-66
2022/04/17 11:22:31;;;;;;;6.25;3.75;;;18.20;63.00;;;;;;4914397;29;20067;-66
2022/04/17 11:24:58;;;;;;;5.18;3.17;;;18.30;60.60;;;;;;4913942;29;20048;-69
2022/04/17 11:27:55;;;;;;;5.72;3.53;;;18.30;58.90;;;;;;4915157;29;20059;-67
2022/04/17 11:30:54;;;;;;;4.68;2.67;;;18.30;57.20;;;;;;4922983;29;20047;-69
2022/04/17 11:33:21;;;;;;;4.10;3.47;;;18.40;57.90;;;;;;4918194;29;20048;-71
2022/04/17 11:35:48;;;;;;;5.90;3.15;;;18.40;57.30;;;;;;4915220;29;20052;-66
2022/04/17 11:38:15;;;;;;;10.88;5.28;;;18.30;55.20;;;;;;4916961;29;20048;-66
2022/04/17 11:40:44;;;;;;;4.03;2.95;;;18.40;57.90;;;;;;4918741;29;20040;-66
2022/04/17 11:43:15;;;;;;;4.82;2.50;;;18.40;55.20;;;;;;4923588;29;20530;-66
2022/04/17 11:45:43;;;;;;;4.75;2.95;;;18.60;55.30;;;;;;4918749;29;20361;-66
2022/04/17 11:48:12;;;;;;;4.17;3.20;;;18.60;54.00;;;;;;4929471;29;20120;-66
2022/04/17 11:50:40;;;;;;;4.32;3.25;;;18.50;54.00;;;;;;4922661;29;20493;-68
2022/04/17 11:53:14;;;;;;;4.00;3.25;;;18.50;54.60;;;;;;4916927;29;20420;-69
2022/04/17 11:55:42;;;;;;;6.05;2.90;;;18.60;54.70;;;;;;4923091;29;20043;-71
2022/04/17 11:58:22;;;;;;;6.53;3.58;;;18.50;53.90;;;;;;4931836;29;20048;-67
2022/04/17 12:00:59;;;;;;;5.25;3.08;;;18.60;54.70;;;;;;4911424;29;20518;-67
2022/04/17 12:03:39;;;;;;;4.32;2.80;;;18.50;51.90;;;;;;4907028;29;20072;-66
2022/04/17 12:06:07;;;;;;;4.88;2.55;;;18.60;51.90;;;;;;4915942;29;20052;-69
2022/04/17 12:08:35;;;;;;;6.28;3.13;;;18.60;51.60;;;;;;4921979;29;20059;-68
2022/04/17 12:11:05;;;;;;;10.20;3.58;;;18.60;52.00;;;;;;4909819;29;20040;-68
2022/04/17 12:13:32;;;;;;;4.47;2.80;;;18.70;53.50;;;;;;4916447;29;20486;-69
2022/04/17 12:16:02;;;;;;;5.55;2.90;;;18.70;50.70;;;;;;4920634;29;20103;-68
2022/04/17 12:18:29;;;;;;;3.00;2.40;;;18.70;50.70;;;;;;4916036;29;20052;-68
2022/04/17 12:21:02;;;;;;;3.42;2.55;;;18.70;52.20;;;;;;4898121;29;20079;-67
2022/04/17 12:23:29;;;;;;;7.45;5.25;;;18.70;50.60;;;;;;4920126;29;20488;-69
2022/04/17 12:25:56;;;;;;;4.03;3.20;;;18.70;52.30;;;;;;4911327;29;20408;-68
2022/04/17 12:28:23;;;;;;;8.02;3.28;;;18.70;52.30;;;;;;4928763;29;20055;-69
2022/04/17 12:30:50;;;;;;;3.83;2.70;;;18.80;53.70;;;;;;4913921;29;20425;-69
2022/04/17 12:33:25;;;;;;;12.15;10.10;;;18.90;55.30;;;;;;4912980;29;20059;-71
2022/04/17 12:36:22;;;;;;;5.85;3.92;;;19.00;53.90;;;;;;4898224;29;20067;-69
2022/04/17 12:38:55;;;;;;;4.25;3.10;;;19.20;53.80;;;;;;4899299;29;20052;-69
2022/04/17 12:41:25;;;;;;;3.85;2.90;;;19.30;53.30;;;;;;4915725;29;20128;-69
2022/04/17 12:43:53;;;;;;;5.78;3.15;;;19.20;53.70;;;;;;4913996;29;20055;-69
2022/04/17 12:46:43;;;;;;;4.95;2.72;;;19.20;53.90;;;;;;4914101;29;20048;-70
2022/04/17 12:49:22;;;;;;;3.85;2.53;;;19.20;52.40;;;;;;4902784;29;20123;-69
2022/04/17 12:51:57;;;;;;;3.63;2.55;;;19.10;51.90;;;;;;4914368;29;20052;-68
2022/04/17 12:54:29;;;;;;;4.10;2.40;;;19.00;50.80;;;;;;4929990;29;20127;-69
2022/04/17 12:57:10;;;;;;;6.00;2.83;;;18.90;51.00;;;;;;4914355;29;20052;-69
2022/04/17 12:59:47;;;;;;;4.70;2.80;;;18.80;51.20;;;;;;4914502;29;20105;-69
2022/04/17 13:02:18;;;;;;;3.20;2.80;;;18.90;51.70;;;;;;4900090;29;20048;-69
2022/04/17 13:04:46;;;;;;;4.07;2.35;;;18.90;52.30;;;;;;4915341;29;20066;-69